Deerlijk, Belgium
Current Conditions -  °F | °C
As of 12:00 PM on Friday 19 Dec 2014 (Local Time) from LFQQ Reporting Station
Light Rain Light Rain  
Wind Chill: 54°   Ceiling: 1000
Heat Index: 54°   Visibility: 4mi
Dew Point: 52°   Wind: 20mph
Humidity: 94%   Direction: 250°WSW
Pressure: 29.91"   Gusts: NA
Location:  50.85°N, 3.35°E
Report Text: LFQQ 191100Z 25017KT 7000 -RA OVC010 12/11 Q1013 TEMPO 4000OVC005
Loading
Personal Weather Stations






























Interactive Weather Map New forecast layout! Learn more

10-Day Weather Forecast

Advertisements
Track Severe Weather on mobile